Time;durP1;ratioP1;P1;durP2;ratioP2;P2;SDS_P1;SDS_P2;PMS_P1;PMS_P2;Temp;Humidity;BMP_temperature;BMP_pressure;BME280_temperature;BME280_humidity;BME280_pressure;Samples;Min_cycle;Max_cycle;Signal;HPM_P1;HPM_P2
2021/04/29 00:01:08;;;;;;;25.03;19.97;;;15.20;90.10;;;;;;5023450;28;20223;-74
2021/04/29 00:03:35;;;;;;;36.43;26.87;;;15.20;90.20;;;;;;5024964;28;20710;-74
2021/04/29 00:06:05;;;;;;;36.63;28.43;;;15.20;90.30;;;;;;5023237;28;20634;-74
2021/04/29 00:08:33;;;;;;;33.30;27.07;;;15.20;90.30;;;;;;5026099;28;20223;-74
2021/04/29 00:11:00;;;;;;;37.37;26.23;;;15.20;90.30;;;;;;5024880;28;20226;-74
2021/04/29 00:13:26;;;;;;;28.53;22.90;;;15.20;90.30;;;;;;5022837;28;20243;-74
2021/04/29 00:15:53;;;;;;;29.57;22.10;;;15.20;90.40;;;;;;5023796;28;20247;-74
2021/04/29 00:18:21;;;;;;;26.47;22.10;;;15.10;90.40;;;;;;5003580;28;20331;-74
2021/04/29 00:20:48;;;;;;;26.10;20.57;;;15.10;90.40;;;;;;5005178;28;20323;-74
2021/04/29 00:23:14;;;;;;;26.27;19.63;;;15.20;90.40;;;;;;5003509;28;20227;-74
2021/04/29 00:25:41;;;;;;;23.77;21.27;;;15.20;90.40;;;;;;5007099;28;20208;-74
2021/04/29 00:28:08;;;;;;;26.07;22.67;;;15.10;90.40;;;;;;5005722;28;20220;-74
2021/04/29 00:30:35;;;;;;;23.10;19.83;;;15.10;90.40;;;;;;5003448;28;20219;-74
2021/04/29 00:33:02;;;;;;;22.73;19.10;;;15.20;90.50;;;;;;5006130;28;20240;-74
2021/04/29 00:35:28;;;;;;;23.97;19.60;;;15.10;90.50;;;;;;5004407;28;20222;-74
2021/04/29 00:37:55;;;;;;;23.60;20.37;;;15.10;90.50;;;;;;5002112;28;20312;-74
2021/04/29 00:40:22;;;;;;;30.30;21.30;;;15.10;90.50;;;;;;5003980;28;20251;-74
2021/04/29 00:42:48;;;;;;;23.97;20.80;;;15.10;90.60;;;;;;5003926;28;20665;-74
2021/04/29 00:45:15;;;;;;;34.77;26.03;;;15.10;90.60;;;;;;5003831;28;20298;-74
2021/04/29 00:47:43;;;;;;;25.97;22.60;;;15.10;90.60;;;;;;5017154;28;20311;-74
2021/04/29 00:50:12;;;;;;;29.20;23.33;;;15.00;90.60;;;;;;5003785;28;20259;-74
2021/04/29 00:52:39;;;;;;;22.90;18.63;;;15.00;90.60;;;;;;5003647;28;20240;-74
2021/04/29 00:55:07;;;;;;;22.50;16.50;;;15.00;90.60;;;;;;5004778;28;20564;-74
2021/04/29 00:57:34;;;;;;;18.60;15.53;;;15.00;90.70;;;;;;5001534;28;20568;-73
2021/04/29 01:00:04;;;;;;;18.43;16.40;;;15.00;90.70;;;;;;5003439;28;20223;-74
2021/04/29 01:02:31;;;;;;;19.27;15.83;;;15.00;90.70;;;;;;5004857;28;20223;-74
2021/04/29 01:05:40;;;;;;;17.67;14.80;;;14.90;90.70;;;;;;5004190;28;20287;-74
2021/04/29 01:08:13;;;;;;;16.17;13.43;;;15.00;90.80;;;;;;4964310;28;20240;-74
2021/04/29 01:11:01;;;;;;;16.07;14.20;;;14.90;90.80;;;;;;4995190;28;20427;-74
2021/04/29 01:13:31;;;;;;;15.27;13.60;;;14.90;90.90;;;;;;5001839;28;20703;-74
2021/04/29 01:15:59;;;;;;;17.00;14.10;;;14.90;91.00;;;;;;4997705;28;20311;-74
2021/04/29 01:18:27;;;;;;;19.97;14.43;;;14.80;91.00;;;;;;5012488;28;20247;-74
2021/04/29 01:21:00;;;;;;;17.27;14.97;;;14.80;91.10;;;;;;5021468;28;20238;-74
2021/04/29 01:23:33;;;;;;;17.57;15.77;;;14.80;91.20;;;;;;5005145;28;20536;-73
2021/04/29 01:26:09;;;;;;;17.43;14.70;;;14.80;91.20;;;;;;5025569;28;20553;-74
2021/04/29 01:28:37;;;;;;;16.07;14.37;;;14.70;91.20;;;;;;5024048;28;20222;-74
2021/04/29 01:31:05;;;;;;;19.67;15.37;;;14.70;91.30;;;;;;5026092;28;20585;-74
2021/04/29 01:33:33;;;;;;;16.03;14.33;;;14.70;91.40;;;;;;5028255;28;20242;-74
2021/04/29 01:36:02;;;;;;;17.57;15.67;;;14.60;91.40;;;;;;5008464;28;20251;-73
2021/04/29 01:38:30;;;;;;;20.83;14.63;;;14.60;91.50;;;;;;5029172;28;20219;-73
2021/04/29 01:40:57;;;;;;;17.37;15.53;;;14.60;91.50;;;;;;5011188;28;20219;-74
2021/04/29 01:43:25;;;;;;;20.60;15.87;;;14.70;91.50;;;;;;5025313;28;20219;-74
2021/04/29 01:45:52;;;;;;;17.87;15.53;;;14.70;91.50;;;;;;5028652;28;20237;-73
2021/04/29 01:48:21;;;;;;;19.23;15.30;;;14.70;91.50;;;;;;5018174;28;20228;-73
2021/04/29 01:50:48;;;;;;;18.23;15.97;;;14.60;91.50;;;;;;5024915;28;20252;-73
2021/04/29 01:53:15;;;;;;;18.23;15.20;;;14.60;91.60;;;;;;5025052;28;20310;-73
2021/04/29 01:55:43;;;;;;;17.57;14.83;;;14.60;91.60;;;;;;5025649;28;20210;-73
2021/04/29 01:58:10;;;;;;;17.37;15.17;;;14.50;91.60;;;;;;5024794;28;20227;-74
2021/04/29 02:00:37;;;;;;;21.17;15.47;;;14.50;91.60;;;;;;5027339;28;20231;-74
2021/04/29 02:03:04;;;;;;;18.47;15.50;;;14.50;91.70;;;;;;5028524;28;20227;-74
2021/04/29 02:05:31;;;;;;;23.27;17.83;;;14.50;91.70;;;;;;5007747;28;20286;-74
2021/04/29 02:07:58;;;;;;;21.73;16.43;;;14.40;91.70;;;;;;5028044;28;20218;-74
2021/04/29 02:10:25;;;;;;;22.20;16.17;;;14.40;91.90;;;;;;5028195;28;20216;-73
2021/04/29 02:12:55;;;;;;;16.47;14.67;;;14.40;92.00;;;;;;5027770;28;20297;-74
2021/04/29 02:15:32;;;;;;;17.83;15.07;;;14.40;92.00;;;;;;5027966;28;20629;-74
2021/04/29 02:18:07;;;;;;;17.60;15.53;;;14.40;92.00;;;;;;5030002;28;20235;-74
2021/04/29 02:20:38;;;;;;;14.77;12.77;;;14.40;92.00;;;;;;5027125;28;20220;-74
2021/04/29 02:23:19;;;;;;;21.67;13.83;;;14.50;92.00;;;;;;5026838;28;20266;-73
2021/04/29 02:25:48;;;;;;;17.37;14.43;;;14.50;91.90;;;;;;5031453;28;20306;-74
2021/04/29 02:28:16;;;;;;;16.63;14.17;;;14.40;91.80;;;;;;5024808;28;20841;-74
2021/04/29 02:30:43;;;;;;;15.03;13.47;;;14.40;91.80;;;;;;5027488;28;20285;-73
2021/04/29 02:33:10;;;;;;;16.00;13.67;;;14.40;91.80;;;;;;5028156;28;20234;-74
2021/04/29 02:35:37;;;;;;;16.07;13.80;;;14.30;91.80;;;;;;5024629;28;20224;-73
2021/04/29 02:38:04;;;;;;;14.90;12.97;;;14.30;91.80;;;;;;5027395;28;20219;-74
2021/04/29 02:40:32;;;;;;;18.27;13.93;;;14.20;91.80;;;;;;5024055;28;20275;-74
2021/04/29 02:43:04;;;;;;;18.50;13.30;;;14.20;91.90;;;;;;5010162;28;20668;-73
2021/04/29 02:45:31;;;;;;;14.67;13.00;;;14.20;91.90;;;;;;5007919;28;20223;-73
2021/04/29 02:47:58;;;;;;;15.83;14.23;;;14.20;91.90;;;;;;5022622;28;20230;-73
2021/04/29 02:50:26;;;;;;;18.30;14.73;;;14.10;91.90;;;;;;5028099;28;20234;-74
2021/04/29 02:52:53;;;;;;;11.93;10.63;;;14.10;91.90;;;;;;5024808;28;20240;-74
2021/04/29 02:55:22;;;;;;;11.80;10.70;;;14.10;91.80;;;;;;5024113;28;20222;-73
2021/04/29 02:57:49;;;;;;;14.43;11.40;;;14.00;91.60;;;;;;5013821;28;20303;-74
2021/04/29 03:00:18;;;;;;;13.63;12.13;;;13.90;91.70;;;;;;5012182;28;20210;-74
2021/04/29 03:02:45;;;;;;;17.23;14.20;;;13.90;91.70;;;;;;5025143;28;20310;-73
2021/04/29 03:05:14;;;;;;;16.07;13.50;;;13.90;91.80;;;;;;5008596;28;20631;-73
2021/04/29 03:07:42;;;;;;;20.63;13.37;;;13.90;91.80;;;;;;5025213;28;20220;-73
2021/04/29 03:10:11;;;;;;;16.63;13.00;;;14.00;91.80;;;;;;5025320;28;20222;-73
2021/04/29 03:12:38;;;;;;;14.23;12.77;;;14.00;91.70;;;;;;5025565;28;20322;-74
2021/04/29 03:15:06;;;;;;;17.37;14.20;;;14.00;91.70;;;;;;5008246;28;20215;-74
2021/04/29 03:17:33;;;;;;;18.60;13.67;;;14.00;91.70;;;;;;5027041;28;20243;-73
2021/04/29 03:20:00;;;;;;;13.60;12.30;;;14.00;91.70;;;;;;5023048;28;20269;-73
2021/04/29 03:22:27;;;;;;;14.00;11.50;;;13.90;91.70;;;;;;5025316;28;20644;-73
2021/04/29 03:24:54;;;;;;;18.10;12.67;;;13.90;91.60;;;;;;5028813;28;20265;-74
2021/04/29 03:27:23;;;;;;;16.17;14.47;;;13.80;91.60;;;;;;5025112;28;20592;-74
2021/04/29 03:29:51;;;;;;;18.87;14.80;;;13.80;91.70;;;;;;5024671;28;20223;-74
2021/04/29 03:32:19;;;;;;;18.33;15.00;;;13.70;91.80;;;;;;5025218;28;20226;-74
2021/04/29 03:34:46;;;;;;;18.40;14.60;;;13.70;92.00;;;;;;5022766;28;20219;-74
2021/04/29 03:37:14;;;;;;;16.37;13.73;;;13.70;92.10;;;;;;5024642;28;20326;-74
2021/04/29 03:39:41;;;;;;;20.00;14.00;;;13.60;92.10;;;;;;5025168;28;20660;-74
2021/04/29 03:42:09;;;;;;;11.63;10.43;;;13.60;92.10;;;;;;5003332;28;20254;-74
2021/04/29 03:44:37;;;;;;;12.03;10.60;;;13.60;92.10;;;;;;5025207;28;20224;-74
2021/04/29 03:47:04;;;;;;;12.80;10.97;;;13.60;92.10;;;;;;5009148;28;20314;-74
2021/04/29 03:49:32;;;;;;;11.30;10.17;;;13.60;92.00;;;;;;5002971;28;20230;-74
2021/04/29 03:51:59;;;;;;;13.23;10.97;;;13.60;91.90;;;;;;5024352;28;20232;-74
2021/04/29 03:54:26;;;;;;;11.23;10.10;;;13.70;91.80;;;;;;5022117;28;20243;-74
2021/04/29 03:56:54;;;;;;;13.17;11.27;;;13.70;91.80;;;;;;5022398;28;20227;-73
2021/04/29 03:59:23;;;;;;;16.77;13.17;;;13.70;91.80;;;;;;5024628;28;20682;-74
2021/04/29 04:01:51;;;;;;;13.07;11.73;;;13.70;91.80;;;;;;5016372;28;20215;-74
2021/04/29 04:04:18;;;;;;;11.80;10.63;;;13.70;91.80;;;;;;5023688;28;20306;-74
2021/04/29 04:06:45;;;;;;;14.40;13.00;;;13.80;91.80;;;;;;5008006;28;20220;-74
2021/04/29 04:09:12;;;;;;;14.33;12.80;;;13.80;91.80;;;;;;5023138;28;20233;-74
2021/04/29 04:11:39;;;;;;;19.20;11.23;;;13.80;91.80;;;;;;5007677;28;20960;-73
2021/04/29 04:14:06;;;;;;;14.13;12.33;;;13.80;91.80;;;;;;5023190;28;20654;-73
2021/04/29 04:16:32;;;;;;;13.67;12.03;;;13.90;91.80;;;;;;5024782;28;20258;-73
2021/04/29 04:18:59;;;;;;;12.13;10.90;;;13.90;91.90;;;;;;5015021;28;20322;-73
2021/04/29 04:21:26;;;;;;;15.37;13.53;;;14.00;92.00;;;;;;4985547;28;20217;-74
2021/04/29 04:23:54;;;;;;;16.40;14.70;;;14.10;92.00;;;;;;4986685;28;20227;-74
2021/04/29 04:26:21;;;;;;;19.93;14.87;;;14.10;92.00;;;;;;4989531;28;20225;-73
2021/04/29 04:28:48;;;;;;;16.87;13.67;;;14.20;92.10;;;;;;4984337;28;20247;-74
2021/04/29 04:31:15;;;;;;;21.70;16.10;;;14.20;92.10;;;;;;4985226;28;20252;-74
2021/04/29 04:33:42;;;;;;;20.70;16.33;;;14.30;92.10;;;;;;4984346;28;20252;-73
2021/04/29 04:36:09;;;;;;;20.70;15.53;;;14.30;92.10;;;;;;4992088;28;20307;-73
2021/04/29 04:38:35;;;;;;;19.10;16.77;;;14.40;92.20;;;;;;4999787;28;20227;-73
2021/04/29 04:41:03;;;;;;;20.90;17.47;;;14.40;92.20;;;;;;4991988;28;20213;-74
2021/04/29 04:43:30;;;;;;;22.63;16.97;;;14.50;92.20;;;;;;4984302;28;20254;-73
2021/04/29 04:45:57;;;;;;;19.00;16.87;;;14.50;92.20;;;;;;4986768;28;20254;-74
2021/04/29 04:48:24;;;;;;;21.37;16.77;;;14.60;92.20;;;;;;5014868;28;20216;-74
2021/04/29 04:50:51;;;;;;;22.27;17.80;;;14.60;92.10;;;;;;4984446;28;20232;-74
2021/04/29 04:53:19;;;;;;;20.73;17.50;;;14.60;92.00;;;;;;4991462;28;20255;-73
2021/04/29 04:55:48;;;;;;;23.37;17.87;;;14.60;92.00;;;;;;4987155;28;20221;-73
2021/04/29 04:58:16;;;;;;;23.80;18.80;;;14.60;92.10;;;;;;4982270;28;20216;-73
2021/04/29 05:00:43;;;;;;;27.43;18.63;;;14.70;92.20;;;;;;4987998;28;20217;-73
2021/04/29 05:03:13;;;;;;;25.90;19.63;;;14.60;92.10;;;;;;4983446;28;20235;-74
2021/04/29 05:05:41;;;;;;;22.67;18.43;;;14.70;92.20;;;;;;4981922;28;20252;-73
2021/04/29 05:08:08;;;;;;;23.63;18.67;;;14.70;92.20;;;;;;4982906;28;20228;-73
2021/04/29 05:10:36;;;;;;;22.47;19.80;;;14.80;92.20;;;;;;4985028;28;20217;-74
2021/04/29 05:13:04;;;;;;;24.83;19.67;;;14.80;92.20;;;;;;4983105;28;20240;-73
2021/04/29 05:15:33;;;;;;;28.17;19.53;;;14.80;92.20;;;;;;4986283;28;20644;-73
2021/04/29 05:18:00;;;;;;;22.80;20.03;;;14.80;92.10;;;;;;5004689;28;20317;-74
2021/04/29 05:20:28;;;;;;;25.37;20.27;;;14.90;92.20;;;;;;5007579;28;20238;-74
2021/04/29 05:22:55;;;;;;;25.87;19.33;;;14.90;92.10;;;;;;5021370;28;20223;-74
2021/04/29 05:25:22;;;;;;;27.50;21.10;;;14.90;92.10;;;;;;5027145;28;20686;-73
2021/04/29 05:27:58;;;;;;;23.77;19.80;;;15.00;92.10;;;;;;5021470;28;20932;-74
2021/04/29 05:30:25;;;;;;;26.40;20.00;;;15.00;92.10;;;;;;5017273;28;20591;-73
2021/04/29 05:32:51;;;;;;;24.07;20.33;;;15.10;92.10;;;;;;5021387;28;20236;-73
2021/04/29 05:35:18;;;;;;;21.90;19.70;;;15.10;92.00;;;;;;5004076;28;20636;-73
2021/04/29 05:37:45;;;;;;;24.50;21.13;;;15.20;92.00;;;;;;5021266;28;20212;-74
2021/04/29 05:40:12;;;;;;;26.03;19.83;;;15.20;91.90;;;;;;5021465;28;20278;-73
2021/04/29 05:42:40;;;;;;;26.93;21.30;;;15.30;91.90;;;;;;5024792;28;20725;-73
2021/04/29 05:45:09;;;;;;;27.80;20.50;;;15.30;91.80;;;;;;5021114;28;20303;-74
2021/04/29 05:47:35;;;;;;;26.13;21.63;;;15.40;91.80;;;;;;5024816;28;20219;-74
2021/04/29 05:50:04;;;;;;;26.73;19.93;;;15.40;91.70;;;;;;5019871;28;20216;-73
2021/04/29 05:52:31;;;;;;;25.50;21.73;;;15.50;91.70;;;;;;5020916;28;20217;-73
2021/04/29 05:54:58;;;;;;;28.83;21.83;;;15.50;91.60;;;;;;5027734;28;20223;-73
2021/04/29 05:57:26;;;;;;;32.70;23.10;;;15.60;91.60;;;;;;5021221;28;20215;-73
2021/04/29 05:59:53;;;;;;;27.67;22.30;;;15.60;91.60;;;;;;5020766;28;20215;-73
2021/04/29 06:02:20;;;;;;;28.37;23.50;;;15.70;91.60;;;;;;5020804;28;20216;-73
2021/04/29 06:04:46;;;;;;;35.70;24.43;;;15.70;91.50;;;;;;5020768;28;20250;-73
2021/04/29 06:07:14;;;;;;;31.70;23.60;;;15.70;91.50;;;;;;5020584;28;20223;-73
2021/04/29 06:09:41;;;;;;;31.57;23.80;;;15.80;91.40;;;;;;5020556;28;20238;-73
2021/04/29 06:12:13;;;;;;;32.57;25.23;;;15.90;91.30;;;;;;5024480;28;20215;-73
2021/04/29 06:14:40;;;;;;;30.60;24.73;;;16.00;91.20;;;;;;5002424;28;20248;-73
2021/04/29 06:17:07;;;;;;;34.40;26.37;;;16.10;91.10;;;;;;5026409;28;20626;-73
2021/04/29 06:19:35;;;;;;;28.00;25.00;;;16.20;91.10;;;;;;5024370;28;20220;-73
2021/04/29 06:22:02;;;;;;;31.50;24.80;;;16.20;90.90;;;;;;5022754;28;20232;-73
2021/04/29 06:24:29;;;;;;;33.67;28.00;;;16.30;90.90;;;;;;5009647;28;20214;-73
2021/04/29 06:26:56;;;;;;;36.53;28.27;;;16.40;90.80;;;;;;5022735;28;20219;-73
2021/04/29 06:29:23;;;;;;;34.27;28.50;;;16.40;90.60;;;;;;5028037;28;20549;-73
2021/04/29 06:31:50;;;;;;;35.73;27.77;;;16.50;90.50;;;;;;5024533;28;20239;-73
2021/04/29 06:34:17;;;;;;;42.50;29.53;;;16.50;90.40;;;;;;5027746;28;20239;-73
2021/04/29 06:36:43;;;;;;;31.30;27.93;;;16.60;90.40;;;;;;5023998;28;20219;-73
2021/04/29 06:39:11;;;;;;;39.20;29.80;;;16.70;90.30;;;;;;5023965;28;20211;-73
2021/04/29 06:41:38;;;;;;;44.23;30.83;;;16.80;90.10;;;;;;5023489;28;20227;-73
2021/04/29 06:44:05;;;;;;;41.33;32.70;;;16.90;89.70;;;;;;5027891;28;20226;-73
2021/04/29 06:46:31;;;;;;;50.67;34.00;;;17.00;89.30;;;;;;5008741;28;20265;-73
2021/04/29 06:48:58;;;;;;;43.30;33.03;;;17.00;89.10;;;;;;5023650;28;20215;-74
2021/04/29 06:51:25;;;;;;;54.83;32.50;;;17.10;88.90;;;;;;5023504;28;20362;-73
2021/04/29 06:54:06;;;;;;;49.07;33.60;;;17.20;88.70;;;;;;5023628;28;20242;-73
2021/04/29 06:56:36;;;;;;;47.87;32.03;;;17.40;88.40;;;;;;5023483;28;20215;-74
2021/04/29 06:59:06;;;;;;;48.70;32.30;;;17.50;87.80;;;;;;5025499;28;20222;-73
2021/04/29 07:01:33;;;;;;;38.80;29.63;;;17.60;87.40;;;;;;5027125;28;20212;-74
2021/04/29 07:04:00;;;;;;;44.40;30.63;;;17.60;87.20;;;;;;5025051;28;20229;-74
2021/04/29 07:06:27;;;;;;;43.63;31.37;;;17.70;86.80;;;;;;5025599;28;20219;-73
2021/04/29 07:08:59;;;;;;;47.70;32.13;;;17.70;86.70;;;;;;5024910;28;20219;-73
2021/04/29 07:11:28;;;;;;;48.70;31.80;;;17.80;86.60;;;;;;5026149;28;20355;-73
2021/04/29 07:13:55;;;;;;;44.87;30.47;;;17.80;86.20;;;;;;5024040;28;20584;-73
2021/04/29 07:16:21;;;;;;;46.57;31.80;;;17.80;86.00;;;;;;5026039;28;20296;-74
2021/04/29 07:18:49;;;;;;;47.30;29.90;;;17.80;85.80;;;;;;5007405;28;20248;-73
2021/04/29 07:21:16;;;;;;;44.00;29.60;;;17.80;85.90;;;;;;5003624;28;20227;-73
2021/04/29 07:23:46;;;;;;;46.57;30.40;;;17.80;85.90;;;;;;5004623;28;20230;-73
2021/04/29 07:26:15;;;;;;;47.87;30.07;;;17.70;85.80;;;;;;5004451;28;20537;-73
2021/04/29 07:28:43;;;;;;;47.63;30.93;;;17.70;86.10;;;;;;5003130;28;20670;-73
2021/04/29 07:31:11;;;;;;;43.43;29.17;;;17.70;86.10;;;;;;5006401;28;20230;-73
2021/04/29 07:33:39;;;;;;;41.83;27.83;;;17.50;85.90;;;;;;5002071;28;20247;-74
2021/04/29 07:36:07;;;;;;;42.17;28.23;;;17.40;86.50;;;;;;5003257;28;20219;-74
2021/04/29 07:38:34;;;;;;;43.37;28.50;;;17.40;86.70;;;;;;5006681;28;20230;-74
2021/04/29 07:41:01;;;;;;;45.10;27.83;;;17.40;86.80;;;;;;5002496;28;20619;-74
2021/04/29 07:43:27;;;;;;;42.70;28.87;;;17.40;87.10;;;;;;5005596;28;20228;-74
2021/04/29 07:45:54;;;;;;;39.70;27.97;;;17.40;87.30;;;;;;5003354;28;20307;-73
2021/04/29 07:48:21;;;;;;;38.97;27.10;;;17.50;87.30;;;;;;5006386;28;20259;-73
2021/04/29 07:50:48;;;;;;;37.60;25.57;;;17.60;87.10;;;;;;5000139;28;20312;-73
2021/04/29 07:53:15;;;;;;;43.83;28.00;;;17.70;86.70;;;;;;5006241;28;20271;-73
2021/04/29 07:55:42;;;;;;;39.23;26.57;;;17.90;86.50;;;;;;5000221;28;20216;-73
2021/04/29 07:58:09;;;;;;;40.27;27.07;;;18.00;85.70;;;;;;5006014;28;20227;-72
2021/04/29 08:00:53;;;;;;;36.40;25.17;;;18.00;85.60;;;;;;5007009;28;20208;-73
2021/04/29 08:03:20;;;;;;;38.20;26.17;;;18.10;85.60;;;;;;5004264;28;20291;-73
2021/04/29 08:05:48;;;;;;;38.93;27.63;;;18.10;85.40;;;;;;5004244;28;20211;-73
2021/04/29 08:08:15;;;;;;;38.47;29.03;;;18.10;85.50;;;;;;5003046;28;20630;-73
2021/04/29 08:10:42;;;;;;;36.50;27.07;;;18.20;85.40;;;;;;5005210;28;20223;-73
2021/04/29 08:13:10;;;;;;;39.60;27.20;;;18.20;85.10;;;;;;5003699;28;21016;-73
2021/04/29 08:15:39;;;;;;;37.43;26.70;;;18.10;84.80;;;;;;5004857;28;20310;-73
2021/04/29 08:18:06;;;;;;;37.77;27.30;;;18.10;84.50;;;;;;5002783;28;20240;-73
2021/04/29 08:20:33;;;;;;;40.70;26.07;;;18.10;84.50;;;;;;5016699;28;20217;-73
2021/04/29 08:23:00;;;;;;;36.43;25.37;;;18.10;84.90;;;;;;5008931;28;20308;-74
2021/04/29 08:25:27;;;;;;;40.73;28.30;;;18.20;85.00;;;;;;5002802;28;20212;-73
2021/04/29 08:27:54;;;;;;;38.53;26.43;;;18.30;84.70;;;;;;5006378;28;20228;-74
2021/04/29 08:30:27;;;;;;;41.93;27.43;;;18.30;84.60;;;;;;5003571;28;20483;-73
2021/04/29 08:32:56;;;;;;;37.93;27.03;;;18.30;84.00;;;;;;5003640;28;20220;-73
2021/04/29 08:35:24;;;;;;;35.93;26.97;;;18.30;84.30;;;;;;5004664;28;20217;-73
2021/04/29 08:37:51;;;;;;;33.07;27.13;;;18.30;84.60;;;;;;5003111;28;20219;-74
2021/04/29 08:40:20;;;;;;;36.17;25.57;;;18.30;84.50;;;;;;5006479;28;20212;-74
2021/04/29 08:42:47;;;;;;;34.53;27.00;;;18.30;84.70;;;;;;5004683;28;20530;-73
2021/04/29 08:45:16;;;;;;;37.00;26.47;;;18.30;85.00;;;;;;5003463;28;20238;-73
2021/04/29 08:47:53;;;;;;;41.00;26.57;;;18.30;84.60;;;;;;5003984;28;20219;-74
2021/04/29 08:50:21;;;;;;;38.00;26.23;;;18.40;84.90;;;;;;4994597;28;20538;-73
2021/04/29 08:52:49;;;;;;;38.73;26.13;;;18.50;84.90;;;;;;5001944;28;20224;-73
2021/04/29 08:55:25;;;;;;;34.47;25.90;;;18.60;84.60;;;;;;5002599;28;20565;-73
2021/04/29 08:57:56;;;;;;;41.30;28.87;;;18.60;84.40;;;;;;5018951;28;20243;-73
2021/04/29 09:00:24;;;;;;;36.33;28.27;;;18.80;83.90;;;;;;5006974;28;20216;-73
2021/04/29 09:02:55;;;;;;;39.17;29.73;;;18.70;83.60;;;;;;5002828;28;20225;-73
2021/04/29 09:05:25;;;;;;;43.00;28.40;;;18.70;84.00;;;;;;5003005;28;20234;-74
2021/04/29 09:08:08;;;;;;;36.60;27.30;;;18.80;83.90;;;;;;5004585;28;20220;-74
2021/04/29 09:10:42;;;;;;;38.27;28.57;;;18.90;83.40;;;;;;5001835;28;20271;-73
2021/04/29 09:13:18;;;;;;;31.30;25.80;;;19.10;83.40;;;;;;5003545;28;20687;-73
2021/04/29 09:15:47;;;;;;;33.07;25.97;;;19.30;82.60;;;;;;5005862;28;20228;-73
2021/04/29 09:18:21;;;;;;;35.37;26.50;;;19.60;81.80;;;;;;5014407;28;20697;-73
2021/04/29 09:20:57;;;;;;;29.83;24.83;;;20.00;81.00;;;;;;5021589;28;20219;-74
2021/04/29 09:23:25;;;;;;;31.13;25.17;;;20.60;79.30;;;;;;5023834;28;20221;-73
2021/04/29 09:25:57;;;;;;;32.40;25.20;;;21.00;77.60;;;;;;5019739;28;20227;-73
2021/04/29 09:28:44;;;;;;;30.37;23.87;;;21.30;75.70;;;;;;5024952;28;20234;-73
2021/04/29 09:31:15;;;;;;;29.40;23.73;;;21.30;75.40;;;;;;5004716;28;20238;-73
2021/04/29 09:33:57;;;;;;;24.83;22.10;;;21.30;75.30;;;;;;5006566;28;20245;-73
2021/04/29 09:36:30;;;;;;;23.77;20.37;;;21.20;75.60;;;;;;5024367;28;20249;-73
2021/04/29 09:39:17;;;;;;;25.23;21.83;;;21.20;74.60;;;;;;5004217;28;20285;-73
2021/04/29 09:41:49;;;;;;;23.77;21.20;;;21.10;74.10;;;;;;5013862;28;20211;-73
2021/04/29 09:44:21;;;;;;;24.83;21.27;;;21.00;74.80;;;;;;5021732;28;20262;-73
2021/04/29 09:46:51;;;;;;;27.37;23.20;;;20.90;75.10;;;;;;5021022;28;20223;-73
2021/04/29 09:49:24;;;;;;;24.23;19.13;;;20.80;75.60;;;;;;5021406;28;20639;-74
2021/04/29 09:51:51;;;;;;;24.07;20.53;;;20.80;75.50;;;;;;5013800;28;20211;-74
2021/04/29 09:54:24;;;;;;;22.47;19.30;;;20.70;75.30;;;;;;5025004;28;20777;-74
2021/04/29 09:57:00;;;;;;;21.60;18.83;;;20.60;74.90;;;;;;5008140;28;20246;-73
2021/04/29 09:59:29;;;;;;;22.50;20.13;;;20.50;75.80;;;;;;5026450;28;20273;-74
2021/04/29 10:01:57;;;;;;;22.97;20.40;;;20.50;75.80;;;;;;5028389;28;20222;-74
2021/04/29 10:04:27;;;;;;;23.97;19.93;;;20.50;76.00;;;;;;5008141;28;20243;-74
2021/04/29 10:07:00;;;;;;;22.73;19.57;;;20.60;76.30;;;;;;5028086;28;20677;-73
2021/04/29 10:09:30;;;;;;;21.10;18.90;;;20.60;75.60;;;;;;5020886;28;20218;-73
2021/04/29 10:12:09;;;;;;;19.97;17.70;;;20.70;75.40;;;;;;5025312;28;20231;-73
2021/04/29 10:14:41;;;;;;;20.83;18.87;;;20.60;75.10;;;;;;5025412;28;20243;-73
2021/04/29 10:17:11;;;;;;;24.00;19.83;;;20.60;75.90;;;;;;5024441;28;20220;-74
2021/04/29 10:19:56;;;;;;;23.70;20.63;;;20.60;75.40;;;;;;5027636;28;20226;-73
2021/04/29 10:22:23;;;;;;;25.23;20.57;;;20.60;75.90;;;;;;5005603;28;20833;-73
2021/04/29 10:24:50;;;;;;;20.07;17.97;;;20.60;75.90;;;;;;5016395;28;20305;-73
2021/04/29 10:27:23;;;;;;;26.97;18.77;;;20.60;75.70;;;;;;5026555;28;20219;-74
2021/04/29 10:30:05;;;;;;;20.07;17.93;;;20.60;75.80;;;;;;5026989;28;20587;-73
2021/04/29 10:32:33;;;;;;;21.07;18.87;;;20.60;76.20;;;;;;5018924;28;20218;-74
2021/04/29 10:35:21;;;;;;;20.20;17.47;;;20.60;76.40;;;;;;5010351;28;20651;-74
2021/04/29 10:38:02;;;;;;;21.20;19.10;;;20.70;76.40;;;;;;5007616;28;20215;-73
2021/04/29 10:40:40;;;;;;;19.87;17.47;;;20.90;77.00;;;;;;5020281;28;20508;-73
2021/04/29 10:43:09;;;;;;;21.47;14.03;;;21.00;75.50;;;;;;5026544;28;20223;-73
2021/04/29 10:45:36;;;;;;;21.67;15.50;;;21.20;74.60;;;;;;5024843;28;20219;-73
2021/04/29 10:48:04;;;;;;;18.87;16.87;;;21.30;73.80;;;;;;5026604;28;20225;-73
2021/04/29 10:50:51;;;;;;;22.20;16.13;;;21.30;74.90;;;;;;5024900;28;20642;-73
2021/04/29 10:53:31;;;;;;;16.10;13.33;;;21.40;75.00;;;;;;5025491;28;20608;-73
2021/04/29 10:56:01;;;;;;;12.27;10.93;;;21.50;73.50;;;;;;5024408;28;20230;-73
2021/04/29 10:58:28;;;;;;;14.23;11.70;;;21.60;71.60;;;;;;5023870;28;20372;-74
2021/04/29 11:01:02;;;;;;;15.10;12.53;;;21.70;70.60;;;;;;5028833;28;20253;-73
2021/04/29 11:03:34;;;;;;;17.40;14.50;;;21.80;71.30;;;;;;5023767;28;20227;-73
2021/04/29 11:06:10;;;;;;;14.70;12.03;;;21.90;71.40;;;;;;5009550;28;20215;-74
2021/04/29 11:08:48;;;;;;;14.77;13.20;;;22.10;71.30;;;;;;5008725;28;20218;-73
2021/04/29 11:11:36;;;;;;;15.77;12.60;;;22.20;70.50;;;;;;5023569;28;20219;-73
2021/04/29 11:14:11;;;;;;;14.40;10.97;;;22.10;69.80;;;;;;5025825;28;20271;-74
2021/04/29 11:16:52;;;;;;;12.37;11.07;;;22.00;68.70;;;;;;5006986;28;20268;-73
2021/04/29 11:19:38;;;;;;;14.30;12.80;;;21.90;69.20;;;;;;5003877;28;20547;-74
2021/04/29 11:22:09;;;;;;;15.10;12.10;;;21.80;69.40;;;;;;5003742;28;20641;-73
2021/04/29 11:24:41;;;;;;;17.70;11.10;;;21.80;70.50;;;;;;5003986;28;20278;-74
2021/04/29 11:27:25;;;;;;;14.97;10.40;;;21.80;68.80;;;;;;5003442;28;20231;-74
2021/04/29 11:30:13;;;;;;;15.50;12.07;;;21.80;69.10;;;;;;5003036;28;20235;-73
2021/04/29 11:32:52;;;;;;;11.67;10.23;;;22.00;69.60;;;;;;5006868;28;20219;-73
2021/04/29 11:35:21;;;;;;;12.70;10.53;;;22.30;68.40;;;;;;5007015;28;20333;-73
2021/04/29 11:37:48;;;;;;;9.60;8.60;;;22.40;68.20;;;;;;5002477;28;20697;-75
2021/04/29 11:40:15;;;;;;;11.97;9.80;;;22.40;67.70;;;;;;5003157;28;20228;-73
2021/04/29 11:42:52;;;;;;;11.83;10.10;;;22.50;66.70;;;;;;5003462;28;20633;-73
2021/04/29 11:45:24;;;;;;;13.10;11.80;;;22.60;65.60;;;;;;4996590;28;20217;-73
2021/04/29 11:48:00;;;;;;;14.27;12.60;;;22.60;65.20;;;;;;5005285;28;20231;-74
2021/04/29 11:50:32;;;;;;;14.63;13.03;;;22.50;65.90;;;;;;5003256;28;20230;-74
2021/04/29 11:53:03;;;;;;;14.87;13.30;;;22.30;66.40;;;;;;5018924;28;20814;-73
2021/04/29 11:55:30;;;;;;;14.33;12.53;;;22.30;67.00;;;;;;5003372;28;20248;-73
2021/04/29 11:58:27;;;;;;;13.47;11.97;;;22.20;67.10;;;;;;5002960;28;20220;-73
2021/04/29 12:00:55;;;;;;;46.73;42.97;;;22.10;67.20;;;;;;4933031;29;20571;-73
2021/04/29 12:03:24;;;;;;;13.30;11.70;;;21.90;68.00;;;;;;4935046;29;20260;-73
2021/04/29 12:05:53;;;;;;;14.17;12.67;;;21.80;68.90;;;;;;4934273;29;20219;-73
2021/04/29 12:08:23;;;;;;;38.00;29.20;;;21.70;69.80;;;;;;4934965;29;20237;-73
2021/04/29 12:10:50;;;;;;;17.17;13.77;;;21.60;70.10;;;;;;4934409;29;20222;-73
2021/04/29 12:13:28;;;;;;;13.57;11.57;;;21.50;70.80;;;;;;4933727;29;20223;-73
2021/04/29 12:15:57;;;;;;;15.30;12.30;;;21.50;71.10;;;;;;4934635;29;20218;-74
2021/04/29 12:18:24;;;;;;;26.77;19.63;;;21.40;71.30;;;;;;4994713;28;20619;-74
2021/04/29 12:20:52;;;;;;;13.47;11.57;;;21.30;71.20;;;;;;5026427;28;20273;-73
2021/04/29 12:23:19;;;;;;;13.23;10.30;;;21.30;71.70;;;;;;5023465;28;20216;-73
2021/04/29 12:26:03;;;;;;;12.73;10.10;;;21.30;72.00;;;;;;5024878;28;20298;-73
2021/04/29 12:28:31;;;;;;;17.70;13.30;;;21.30;71.80;;;;;;5018476;28;20293;-73
2021/04/29 12:31:10;;;;;;;13.53;11.20;;;21.40;71.60;;;;;;5024730;28;20280;-73
2021/04/29 12:33:37;;;;;;;11.30;10.10;;;21.50;71.40;;;;;;5024298;28;20332;-73
2021/04/29 12:36:11;;;;;;;10.60;9.50;;;21.50;70.80;;;;;;5029184;28;20287;-73
2021/04/29 12:38:37;;;;;;;10.60;9.50;;;21.50;70.80;;;;;;5025425;28;20241;-73
2021/04/29 12:41:06;;;;;;;13.27;10.67;;;21.50;71.00;;;;;;5029750;28;20541;-74